sensor_id;sensor_type;location;lat;lon;timestamp;pressure;altitude;pressure_sealevel;temperature;humidity
66681;BME280;53575;51.366;12.350;2023-07-13T00:00:27;99984.66;;;21.38;52.41
66681;BME280;53575;51.366;12.350;2023-07-13T00:02:52;99987.09;;;21.25;52.34
66681;BME280;53575;51.366;12.350;2023-07-13T00:05:22;100005.22;;;21.34;52.13
66681;BME280;53575;51.366;12.350;2023-07-13T00:07:48;100010.09;;;21.26;52.83
66681;BME280;53575;51.366;12.350;2023-07-13T00:10:14;100013.84;;;21.06;52.54
66681;BME280;53575;51.366;12.350;2023-07-13T00:15:17;100017.44;;;21.21;50.35
66681;BME280;53575;51.366;12.350;2023-07-13T00:17:51;100026.50;;;21.17;52.34
66681;BME280;53575;51.366;12.350;2023-07-13T00:20:17;100033.97;;;21.10;52.74
66681;BME280;53575;51.366;12.350;2023-07-13T00:22:43;100031.41;;;21.25;58.49
66681;BME280;53575;51.366;12.350;2023-07-13T00:25:11;100034.53;;;21.33;60.60
66681;BME280;53575;51.366;12.350;2023-07-13T00:27:37;100036.56;;;21.28;60.05
66681;BME280;53575;51.366;12.350;2023-07-13T00:30:03;100042.81;;;21.11;61.19
66681;BME280;53575;51.366;12.350;2023-07-13T00:32:28;100047.31;;;21.09;62.22
66681;BME280;53575;51.366;12.350;2023-07-13T00:34:55;100043.72;;;21.10;62.74
66681;BME280;53575;51.366;12.350;2023-07-13T00:37:21;100049.03;;;21.10;61.55
66681;BME280;53575;51.366;12.350;2023-07-13T00:39:47;100046.72;;;21.04;58.58
66681;BME280;53575;51.366;12.350;2023-07-13T00:42:12;100047.31;;;21.09;58.73
66681;BME280;53575;51.366;12.350;2023-07-13T00:44:38;100051.03;;;21.06;56.92
66681;BME280;53575;51.366;12.350;2023-07-13T00:47:05;100056.16;;;21.09;57.00
66681;BME280;53575;51.366;12.350;2023-07-13T00:49:32;100069.69;;;21.05;56.05
66681;BME280;53575;51.366;12.350;2023-07-13T00:52:02;100068.13;;;21.01;57.32
66681;BME280;53575;51.366;12.350;2023-07-13T00:54:47;100067.13;;;21.03;55.52
66681;BME280;53575;51.366;12.350;2023-07-13T00:57:17;100065.38;;;21.02;54.70
66681;BME280;53575;51.366;12.350;2023-07-13T00:59:47;100075.66;;;20.92;53.31
66681;BME280;53575;51.366;12.350;2023-07-13T01:02:14;100070.19;;;20.78;52.45
66681;BME280;53575;51.366;12.350;2023-07-13T01:04:41;100075.91;;;20.88;52.39
66681;BME280;53575;51.366;12.350;2023-07-13T01:07:10;100081.22;;;20.88;52.15
66681;BME280;53575;51.366;12.350;2023-07-13T01:09:37;100070.06;;;20.81;52.10
66681;BME280;53575;51.366;12.350;2023-07-13T01:12:03;100060.69;;;20.74;51.94
66681;BME280;53575;51.366;12.350;2023-07-13T01:14:28;100061.28;;;20.79;52.05
66681;BME280;53575;51.366;12.350;2023-07-13T01:16:54;100062.47;;;20.74;52.26
66681;BME280;53575;51.366;12.350;2023-07-13T01:19:38;100074.91;;;20.73;52.42
66681;BME280;53575;51.366;12.350;2023-07-13T01:22:06;100069.28;;;20.62;52.93
66681;BME280;53575;51.366;12.350;2023-07-13T01:24:37;100061.38;;;20.60;53.17
66681;BME280;53575;51.366;12.350;2023-07-13T01:27:03;100058.06;;;20.57;53.53
66681;BME280;53575;51.366;12.350;2023-07-13T01:29:32;100052.06;;;20.53;53.60
66681;BME280;53575;51.366;12.350;2023-07-13T01:31:58;100048.72;;;20.48;54.14
66681;BME280;53575;51.366;12.350;2023-07-13T01:34:25;100049.13;;;20.40;54.24
66681;BME280;53575;51.366;12.350;2023-07-13T01:36:51;100056.47;;;20.35;54.14
66681;BME280;53575;51.366;12.350;2023-07-13T01:39:21;100067.16;;;20.34;54.56
66681;BME280;53575;51.366;12.350;2023-07-13T01:41:47;100058.41;;;20.32;54.74
66681;BME280;53575;51.366;12.350;2023-07-13T01:44:13;100062.25;;;20.26;54.60
66681;BME280;53575;51.366;12.350;2023-07-13T01:46:39;100065.44;;;20.15;55.13
66681;BME280;53575;51.366;12.350;2023-07-13T01:49:04;100067.66;;;20.06;55.72
66681;BME280;53575;51.366;12.350;2023-07-13T01:51:30;100066.88;;;20.04;55.77
66681;BME280;53575;51.366;12.350;2023-07-13T01:53:55;100071.63;;;19.97;56.07
66681;BME280;53575;51.366;12.350;2023-07-13T01:56:20;100072.16;;;19.86;56.55
66681;BME280;53575;51.366;12.350;2023-07-13T01:58:46;100061.41;;;19.89;56.72
66681;BME280;53575;51.366;12.350;2023-07-13T02:01:11;100062.81;;;19.96;56.48
66681;BME280;53575;51.366;12.350;2023-07-13T02:03:37;100068.25;;;19.93;56.65
66681;BME280;53575;51.366;12.350;2023-07-13T02:06:02;100065.91;;;19.87;56.85
66681;BME280;53575;51.366;12.350;2023-07-13T02:08:28;100072.16;;;19.67;57.73
66681;BME280;53575;51.366;12.350;2023-07-13T02:10:54;100068.66;;;19.67;57.77
66681;BME280;53575;51.366;12.350;2023-07-13T02:13:19;100076.34;;;19.53;58.43
66681;BME280;53575;51.366;12.350;2023-07-13T02:15:45;100073.72;;;19.53;58.71
66681;BME280;53575;51.366;12.350;2023-07-13T02:18:10;100071.28;;;19.48;58.82
66681;BME280;53575;51.366;12.350;2023-07-13T02:20:35;100083.22;;;19.38;59.45
66681;BME280;53575;51.366;12.350;2023-07-13T02:23:01;100078.22;;;19.32;60.10
66681;BME280;53575;51.366;12.350;2023-07-13T02:25:26;100084.00;;;19.21;60.37
66681;BME280;53575;51.366;12.350;2023-07-13T02:27:52;100086.19;;;19.32;60.69
66681;BME280;53575;51.366;12.350;2023-07-13T02:30:18;100092.91;;;19.20;60.92
66681;BME280;53575;51.366;12.350;2023-07-13T02:32:43;100086.31;;;19.29;60.74
66681;BME280;53575;51.366;12.350;2023-07-13T02:35:09;100087.31;;;19.26;60.69
66681;BME280;53575;51.366;12.350;2023-07-13T02:37:35;100085.25;;;19.33;60.94
66681;BME280;53575;51.366;12.350;2023-07-13T02:40:01;100089.75;;;19.12;61.49
66681;BME280;53575;51.366;12.350;2023-07-13T02:42:30;100085.00;;;19.18;61.42
66681;BME280;53575;51.366;12.350;2023-07-13T02:44:55;100074.34;;;19.20;61.37
66681;BME280;53575;51.366;12.350;2023-07-13T02:47:21;100075.69;;;19.10;61.74
66681;BME280;53575;51.366;12.350;2023-07-13T02:49:46;100077.97;;;18.98;62.10
66681;BME280;53575;51.366;12.350;2023-07-13T02:52:11;100082.75;;;18.90;62.90
66681;BME280;53575;51.366;12.350;2023-07-13T02:54:37;100084.66;;;18.87;63.34
66681;BME280;53575;51.366;12.350;2023-07-13T02:57:02;100075.31;;;18.98;62.96
66681;BME280;53575;51.366;12.350;2023-07-13T02:59:28;100071.50;;;18.85;63.55
66681;BME280;53575;51.366;12.350;2023-07-13T03:01:53;100074.53;;;18.76;63.76
66681;BME280;53575;51.366;12.350;2023-07-13T03:04:19;100071.13;;;18.74;63.92
66681;BME280;53575;51.366;12.350;2023-07-13T03:06:44;100074.84;;;18.68;64.28
66681;BME280;53575;51.366;12.350;2023-07-13T03:09:10;100077.94;;;18.58;64.78
66681;BME280;53575;51.366;12.350;2023-07-13T03:11:35;100084.38;;;18.52;65.34
66681;BME280;53575;51.366;12.350;2023-07-13T03:14:00;100078.34;;;18.48;65.33
66681;BME280;53575;51.366;12.350;2023-07-13T03:16:26;100095.88;;;18.51;65.34
66681;BME280;53575;51.366;12.350;2023-07-13T03:18:51;100085.75;;;18.40;65.70
66681;BME280;53575;51.366;12.350;2023-07-13T03:21:17;100093.00;;;18.35;66.24
66681;BME280;53575;51.366;12.350;2023-07-13T03:23:42;100094.94;;;18.32;66.46
66681;BME280;53575;51.366;12.350;2023-07-13T03:26:16;100098.59;;;18.27;66.64
66681;BME280;53575;51.366;12.350;2023-07-13T03:28:43;100104.16;;;18.21;67.28
66681;BME280;53575;51.366;12.350;2023-07-13T03:31:12;100102.78;;;18.13;67.46
66681;BME280;53575;51.366;12.350;2023-07-13T03:33:38;100103.44;;;18.18;67.42
66681;BME280;53575;51.366;12.350;2023-07-13T03:36:06;100101.56;;;18.20;67.36
66681;BME280;53575;51.366;12.350;2023-07-13T03:38:32;100101.72;;;18.17;67.59
66681;BME280;53575;51.366;12.350;2023-07-13T03:40:57;100107.25;;;18.11;67.91
66681;BME280;53575;51.366;12.350;2023-07-13T03:43:23;100111.25;;;17.99;68.43
66681;BME280;53575;51.366;12.350;2023-07-13T03:45:48;100119.81;;;18.06;68.44
66681;BME280;53575;51.366;12.350;2023-07-13T03:48:14;100122.38;;;18.07;68.33
66681;BME280;53575;51.366;12.350;2023-07-13T03:50:40;100122.75;;;17.98;69.12
66681;BME280;53575;51.366;12.350;2023-07-13T03:53:06;100122.69;;;17.99;68.90
66681;BME280;53575;51.366;12.350;2023-07-13T03:55:31;100121.19;;;17.92;69.46
66681;BME280;53575;51.366;12.350;2023-07-13T03:58:05;100118.09;;;17.81;70.05
66681;BME280;53575;51.366;12.350;2023-07-13T04:00:44;100127.34;;;17.93;69.80
66681;BME280;53575;51.366;12.350;2023-07-13T04:03:09;100131.72;;;17.94;69.83
66681;BME280;53575;51.366;12.350;2023-07-13T04:05:35;100131.53;;;17.98;69.69
66681;BME280;53575;51.366;12.350;2023-07-13T04:08:01;100133.38;;;17.96;70.16
66681;BME280;53575;51.366;12.350;2023-07-13T04:10:26;100129.94;;;17.94;70.05
66681;BME280;53575;51.366;12.350;2023-07-13T04:12:52;100138.28;;;17.84;70.67
66681;BME280;53575;51.366;12.350;2023-07-13T04:15:17;100142.81;;;17.80;71.24
66681;BME280;53575;51.366;12.350;2023-07-13T04:17:42;100135.06;;;17.75;71.48
66681;BME280;53575;51.366;12.350;2023-07-13T04:20:08;100136.88;;;17.75;71.89
66681;BME280;53575;51.366;12.350;2023-07-13T04:22:33;100138.34;;;17.82;71.91
66681;BME280;53575;51.366;12.350;2023-07-13T04:24:59;100138.91;;;17.90;71.74
66681;BME280;53575;51.366;12.350;2023-07-13T04:27:24;100147.50;;;17.95;71.58
66681;BME280;53575;51.366;12.350;2023-07-13T04:29:50;100147.31;;;18.00;71.54
66681;BME280;53575;51.366;12.350;2023-07-13T04:32:15;100143.47;;;18.09;71.46
66681;BME280;53575;51.366;12.350;2023-07-13T04:34:41;100143.81;;;17.99;71.71
66681;BME280;53575;51.366;12.350;2023-07-13T04:37:06;100140.44;;;18.18;71.25
66681;BME280;53575;51.366;12.350;2023-07-13T04:39:32;100131.66;;;18.17;71.32
66681;BME280;53575;51.366;12.350;2023-07-13T04:41:57;100135.41;;;18.12;71.65
66681;BME280;53575;51.366;12.350;2023-07-13T04:44:23;100144.19;;;18.12;71.43
66681;BME280;53575;51.366;12.350;2023-07-13T04:46:48;100139.78;;;18.13;71.75
66681;BME280;53575;51.366;12.350;2023-07-13T04:49:13;100140.44;;;18.18;71.70
66681;BME280;53575;51.366;12.350;2023-07-13T04:51:39;100134.97;;;18.22;71.22
66681;BME280;53575;51.366;12.350;2023-07-13T04:54:04;100133.88;;;18.28;71.39
66681;BME280;53575;51.366;12.350;2023-07-13T04:56:30;100134.97;;;18.44;72.47
66681;BME280;53575;51.366;12.350;2023-07-13T04:58:55;100133.91;;;18.48;72.13
66681;BME280;53575;51.366;12.350;2023-07-13T05:01:21;100136.00;;;18.40;72.19
66681;BME280;53575;51.366;12.350;2023-07-13T05:03:46;100130.72;;;18.40;73.24
66681;BME280;53575;51.366;12.350;2023-07-13T05:06:12;100132.31;;;18.44;72.72
66681;BME280;53575;51.366;12.350;2023-07-13T05:08:39;100136.94;;;18.39;72.85
66681;BME280;53575;51.366;12.350;2023-07-13T05:11:04;100138.72;;;18.39;73.41
66681;BME280;53575;51.366;12.350;2023-07-13T05:13:30;100134.66;;;18.52;73.67
66681;BME280;53575;51.366;12.350;2023-07-13T05:16:04;100143.25;;;18.57;74.47
66681;BME280;53575;51.366;12.350;2023-07-13T05:18:30;100140.66;;;18.56;74.22
66681;BME280;53575;51.366;12.350;2023-07-13T05:21:03;100141.22;;;18.64;74.65
66681;BME280;53575;51.366;12.350;2023-07-13T05:23:30;100144.50;;;18.69;74.04
66681;BME280;53575;51.366;12.350;2023-07-13T05:25:56;100147.88;;;18.74;73.92
66681;BME280;53575;51.366;12.350;2023-07-13T05:28:22;100141.84;;;18.70;73.98
66681;BME280;53575;51.366;12.350;2023-07-13T05:30:48;100149.59;;;18.75;73.71
66681;BME280;53575;51.366;12.350;2023-07-13T05:33:14;100143.72;;;18.89;73.39
66681;BME280;53575;51.366;12.350;2023-07-13T05:35:40;100145.63;;;19.06;72.87
66681;BME280;53575;51.366;12.350;2023-07-13T05:38:05;100151.09;;;19.21;72.04
66681;BME280;53575;51.366;12.350;2023-07-13T05:40:31;100150.44;;;19.16;72.48
66681;BME280;53575;51.366;12.350;2023-07-13T05:42:56;100151.19;;;19.20;71.47
66681;BME280;53575;51.366;12.350;2023-07-13T05:45:22;100155.34;;;19.26;71.55
66681;BME280;53575;51.366;12.350;2023-07-13T05:47:47;100161.22;;;19.32;72.10
66681;BME280;53575;51.366;12.350;2023-07-13T05:50:13;100159.94;;;19.41;71.76
66681;BME280;53575;51.366;12.350;2023-07-13T05:52:38;100153.31;;;19.51;70.62
66681;BME280;53575;51.366;12.350;2023-07-13T05:55:04;100161.53;;;19.45;70.77
66681;BME280;53575;51.366;12.350;2023-07-13T05:57:30;100159.13;;;19.59;70.40
66681;BME280;53575;51.366;12.350;2023-07-13T05:59:55;100158.44;;;19.75;69.88
66681;BME280;53575;51.366;12.350;2023-07-13T06:02:21;100168.81;;;19.79;70.12
66681;BME280;53575;51.366;12.350;2023-07-13T06:04:46;100165.03;;;19.85;68.71
66681;BME280;53575;51.366;12.350;2023-07-13T06:07:11;100162.44;;;19.83;68.94
66681;BME280;53575;51.366;12.350;2023-07-13T06:09:37;100166.84;;;19.84;68.15
66681;BME280;53575;51.366;12.350;2023-07-13T06:12:04;100176.38;;;19.88;68.37
66681;BME280;53575;51.366;12.350;2023-07-13T06:14:29;100175.56;;;19.86;68.65
66681;BME280;53575;51.366;12.350;2023-07-13T06:16:55;100175.56;;;19.86;68.45
66681;BME280;53575;51.366;12.350;2023-07-13T06:19:20;100185.44;;;20.02;67.56
66681;BME280;53575;51.366;12.350;2023-07-13T06:21:46;100175.94;;;19.98;67.96
66681;BME280;53575;51.366;12.350;2023-07-13T06:24:11;100171.91;;;20.08;66.70
66681;BME280;53575;51.366;12.350;2023-07-13T06:26:37;100180.03;;;20.22;66.39
66681;BME280;53575;51.366;12.350;2023-07-13T06:29:02;100178.47;;;20.18;66.62
66681;BME280;53575;51.366;12.350;2023-07-13T06:31:27;100179.13;;;20.23;66.70
66681;BME280;53575;51.366;12.350;2023-07-13T06:33:53;100184.31;;;20.26;66.69
66681;BME280;53575;51.366;12.350;2023-07-13T06:36:18;100182.53;;;20.44;65.26
66681;BME280;53575;51.366;12.350;2023-07-13T06:38:44;100182.53;;;20.44;65.83
66681;BME280;53575;51.366;12.350;2023-07-13T06:41:10;100187.78;;;20.45;65.94
66681;BME280;53575;51.366;12.350;2023-07-13T06:43:35;100188.78;;;20.62;64.28
66681;BME280;53575;51.366;12.350;2023-07-13T06:46:00;100180.94;;;20.59;64.52
66681;BME280;53575;51.366;12.350;2023-07-13T06:48:26;100181.13;;;20.73;64.63
66681;BME280;53575;51.366;12.350;2023-07-13T06:50:52;100185.81;;;20.85;64.19
66681;BME280;53575;51.366;12.350;2023-07-13T06:53:19;100183.94;;;21.05;60.04
66681;BME280;53575;51.366;12.350;2023-07-13T06:55:46;100185.75;;;21.22;58.47
66681;BME280;53575;51.366;12.350;2023-07-13T06:58:12;100188.22;;;21.42;57.52
66681;BME280;53575;51.366;12.350;2023-07-13T07:00:38;100183.91;;;21.57;57.74
66681;BME280;53575;51.366;12.350;2023-07-13T07:03:05;100194.59;;;21.55;57.81
66681;BME280;53575;51.366;12.350;2023-07-13T07:05:30;100197.59;;;21.49;57.86
66681;BME280;53575;51.366;12.350;2023-07-13T07:07:56;100198.50;;;21.48;57.85
66681;BME280;53575;51.366;12.350;2023-07-13T07:10:22;100198.91;;;21.58;57.08
66681;BME280;53575;51.366;12.350;2023-07-13T07:12:47;100202.25;;;21.61;57.02
66681;BME280;53575;51.366;12.350;2023-07-13T07:15:13;100195.78;;;21.50;56.87
66681;BME280;53575;51.366;12.350;2023-07-13T07:17:39;100197.75;;;21.46;56.99
66681;BME280;53575;51.366;12.350;2023-07-13T07:20:05;100207.19;;;21.52;57.34
66681;BME280;53575;51.366;12.350;2023-07-13T07:22:31;100203.41;;;21.56;56.70
66681;BME280;53575;51.366;12.350;2023-07-13T07:24:57;100203.78;;;21.50;56.30
66681;BME280;53575;51.366;12.350;2023-07-13T07:27:23;100206.34;;;21.51;54.65
66681;BME280;53575;51.366;12.350;2023-07-13T07:29:49;100209.25;;;21.47;55.68
66681;BME280;53575;51.366;12.350;2023-07-13T07:32:15;100198.75;;;21.61;55.43
66681;BME280;53575;51.366;12.350;2023-07-13T07:34:41;100207.06;;;21.71;55.26
66681;BME280;53575;51.366;12.350;2023-07-13T07:37:06;100201.81;;;21.86;54.15
66681;BME280;53575;51.366;12.350;2023-07-13T07:39:32;100203.34;;;21.90;54.12
66681;BME280;53575;51.366;12.350;2023-07-13T07:41:58;100210.97;;;21.97;53.86
66681;BME280;53575;51.366;12.350;2023-07-13T07:44:23;100209.59;;;22.05;50.86
66681;BME280;53575;51.366;12.350;2023-07-13T07:46:49;100218.88;;;21.98;50.20
66681;BME280;53575;51.366;12.350;2023-07-13T07:49:14;100218.25;;;21.93;50.06
66681;BME280;53575;51.366;12.350;2023-07-13T07:51:40;100213.47;;;21.84;50.17
66681;BME280;53575;51.366;12.350;2023-07-13T07:54:06;100213.09;;;21.90;49.98
66681;BME280;53575;51.366;12.350;2023-07-13T07:56:32;100211.59;;;22.02;49.91
66681;BME280;53575;51.366;12.350;2023-07-13T07:58:57;100210.94;;;22.14;49.73
66681;BME280;53575;51.366;12.350;2023-07-13T08:01:23;100216.09;;;22.17;49.55
66681;BME280;53575;51.366;12.350;2023-07-13T08:03:48;100214.47;;;22.30;48.27
66681;BME280;53575;51.366;12.350;2023-07-13T08:06:14;100210.09;;;22.29;48.01
66681;BME280;53575;51.366;12.350;2023-07-13T08:08:39;100214.19;;;22.51;48.33
66681;BME280;53575;51.366;12.350;2023-07-13T08:11:06;100208.78;;;22.52;47.83
66681;BME280;53575;51.366;12.350;2023-07-13T08:13:32;100203.19;;;22.57;48.18
66681;BME280;53575;51.366;12.350;2023-07-13T08:15:58;100216.50;;;22.57;48.17
66681;BME280;53575;51.366;12.350;2023-07-13T08:18:24;100218.31;;;22.56;47.06
66681;BME280;53575;51.366;12.350;2023-07-13T08:20:49;100224.66;;;22.54;46.59
66681;BME280;53575;51.366;12.350;2023-07-13T08:23:15;100228.97;;;22.56;46.17
66681;BME280;53575;51.366;12.350;2023-07-13T08:25:42;100225.44;;;22.56;45.56
66681;BME280;53575;51.366;12.350;2023-07-13T08:28:08;100218.66;;;22.50;45.51
66681;BME280;53575;51.366;12.350;2023-07-13T08:30:33;100223.91;;;22.52;45.45
66681;BME280;53575;51.366;12.350;2023-07-13T08:32:59;100215.72;;;22.55;45.64
66681;BME280;53575;51.366;12.350;2023-07-13T08:35:24;100228.75;;;22.75;45.81
66681;BME280;53575;51.366;12.350;2023-07-13T08:37:51;100227.31;;;22.54;45.64
66681;BME280;53575;51.366;12.350;2023-07-13T08:40:19;100226.97;;;22.60;45.63
66681;BME280;53575;51.366;12.350;2023-07-13T08:42:54;100228.69;;;22.61;45.45
66681;BME280;53575;51.366;12.350;2023-07-13T08:45:24;100231.44;;;22.75;45.26
66681;BME280;53575;51.366;12.350;2023-07-13T08:48:03;100224.78;;;22.82;44.91
66681;BME280;53575;51.366;12.350;2023-07-13T08:50:35;100213.34;;;22.96;43.26
66681;BME280;53575;51.366;12.350;2023-07-13T08:53:04;100209.81;;;22.96;43.95
66681;BME280;53575;51.366;12.350;2023-07-13T08:55:31;100215.47;;;23.05;43.53
66681;BME280;53575;51.366;12.350;2023-07-13T08:58:10;100215.31;;;23.23;43.81
66681;BME280;53575;51.366;12.350;2023-07-13T09:00:45;100209.38;;;23.62;43.52
66681;BME280;53575;51.366;12.350;2023-07-13T09:03:23;100212.91;;;23.91;41.54
66681;BME280;53575;51.366;12.350;2023-07-13T09:05:58;100214.06;;;23.87;41.96
66681;BME280;53575;51.366;12.350;2023-07-13T09:11:27;100202.81;;;23.68;42.23
66681;BME280;53575;51.366;12.350;2023-07-13T09:14:06;100212.91;;;23.77;42.83
66681;BME280;53575;51.366;12.350;2023-07-13T09:16:39;100209.00;;;23.68;42.94
66681;BME280;53575;51.366;12.350;2023-07-13T09:19:08;100212.50;;;23.54;43.32
66681;BME280;53575;51.366;12.350;2023-07-13T09:21:40;100213.38;;;23.55;43.08
66681;BME280;53575;51.366;12.350;2023-07-13T09:24:50;100212.78;;;23.64;42.56
66681;BME280;53575;51.366;12.350;2023-07-13T09:27:22;100205.09;;;23.88;42.63
66681;BME280;53575;51.366;12.350;2023-07-13T09:29:57;100217.00;;;23.97;41.80
66681;BME280;53575;51.366;12.350;2023-07-13T09:32:24;100208.03;;;23.98;41.39
66681;BME280;53575;51.366;12.350;2023-07-13T09:34:52;100210.78;;;24.11;41.10
66681;BME280;53575;51.366;12.350;2023-07-13T09:37:21;100217.06;;;24.24;40.57
66681;BME280;53575;51.366;12.350;2023-07-13T09:39:49;100218.41;;;24.17;41.34
66681;BME280;53575;51.366;12.350;2023-07-13T09:42:21;100206.88;;;24.16;41.23
66681;BME280;53575;51.366;12.350;2023-07-13T09:47:18;100217.41;;;24.32;40.67
66681;BME280;53575;51.366;12.350;2023-07-13T09:49:45;100220.16;;;24.45;40.41
66681;BME280;53575;51.366;12.350;2023-07-13T09:52:13;100226.31;;;24.60;40.22
66681;BME280;53575;51.366;12.350;2023-07-13T09:54:41;100223.66;;;24.60;40.15
66681;BME280;53575;51.366;12.350;2023-07-13T09:57:15;100228.78;;;24.90;40.13
66681;BME280;53575;51.366;12.350;2023-07-13T09:59:44;100220.25;;;24.97;39.21
66681;BME280;53575;51.366;12.350;2023-07-13T10:02:28;100219.38;;;24.97;39.42
66681;BME280;53575;51.366;12.350;2023-07-13T10:05:05;100224.66;;;24.71;39.94
66681;BME280;53575;51.366;12.350;2023-07-13T10:07:38;100226.28;;;24.74;40.00
66681;BME280;53575;51.366;12.350;2023-07-13T10:10:14;100235.00;;;24.63;40.69
66681;BME280;53575;51.366;12.350;2023-07-13T10:12:40;100230.81;;;24.59;40.47
66681;BME280;53575;51.366;12.350;2023-07-13T10:15:10;100226.94;;;24.77;40.55
66681;BME280;53575;51.366;12.350;2023-07-13T10:17:39;100233.97;;;24.78;40.75
66681;BME280;53575;51.366;12.350;2023-07-13T10:20:06;100233.34;;;24.88;40.58
66681;BME280;53575;51.366;12.350;2023-07-13T10:23:21;100227.44;;;24.70;40.88
66681;BME280;53575;51.366;12.350;2023-07-13T10:25:39;100244.00;;;24.33;40.79
66681;BME280;53575;51.366;12.350;2023-07-13T10:28:25;100240.13;;;24.25;41.51
66681;BME280;53575;51.366;12.350;2023-07-13T10:30:53;100241.03;;;23.97;40.72
66681;BME280;53575;51.366;12.350;2023-07-13T10:33:19;100239.84;;;24.15;41.09
66681;BME280;53575;51.366;12.350;2023-07-13T10:35:47;100244.06;;;24.05;42.12
66681;BME280;53575;51.366;12.350;2023-07-13T10:38:20;100240.25;;;24.23;41.66
66681;BME280;53575;51.366;12.350;2023-07-13T10:41:10;100239.31;;;24.37;40.86
66681;BME280;53575;51.366;12.350;2023-07-13T10:43:43;100248.81;;;24.28;41.31
66681;BME280;53575;51.366;12.350;2023-07-13T10:46:11;100247.66;;;24.32;41.22
66681;BME280;53575;51.366;12.350;2023-07-13T10:48:39;100245.91;;;24.46;41.41
66681;BME280;53575;51.366;12.350;2023-07-13T10:51:06;100249.03;;;24.38;40.32
66681;BME280;53575;51.366;12.350;2023-07-13T10:53:33;100249.53;;;24.45;40.23
66681;BME280;53575;51.366;12.350;2023-07-13T10:58:38;100239.16;;;24.40;39.83
66681;BME280;53575;51.366;12.350;2023-07-13T11:06:17;100242.63;;;24.69;39.40
66681;BME280;53575;51.366;12.350;2023-07-13T11:08:58;100227.06;;;25.16;38.19
66681;BME280;53575;51.366;12.350;2023-07-13T11:27:38;100222.16;;;25.22;35.12
66681;BME280;53575;51.366;12.350;2023-07-13T11:35:34;100221.47;;;26.08;34.41
66681;BME280;53575;51.366;12.350;2023-07-13T11:38:01;100212.53;;;26.20;34.63
66681;BME280;53575;51.366;12.350;2023-07-13T11:40:27;100212.28;;;25.99;33.93
66681;BME280;53575;51.366;12.350;2023-07-13T11:43:01;100230.91;;;26.01;35.41
66681;BME280;53575;51.366;12.350;2023-07-13T11:45:27;100212.50;;;25.71;35.74
66681;BME280;53575;51.366;12.350;2023-07-13T11:47:54;100204.13;;;25.75;35.51
66681;BME280;53575;51.366;12.350;2023-07-13T11:50:23;100205.78;;;25.65;35.74
66681;BME280;53575;51.366;12.350;2023-07-13T11:52:50;100202.88;;;25.43;35.78
66681;BME280;53575;51.366;12.350;2023-07-13T11:55:20;100213.38;;;25.46;35.89
66681;BME280;53575;51.366;12.350;2023-07-13T11:58:07;100207.81;;;25.49;36.09
66681;BME280;53575;51.366;12.350;2023-07-13T12:00:35;100211.22;;;25.76;35.77
66681;BME280;53575;51.366;12.350;2023-07-13T12:03:03;100211.53;;;25.97;35.48
66681;BME280;53575;51.366;12.350;2023-07-13T12:05:30;100221.94;;;25.89;33.89
66681;BME280;53575;51.366;12.350;2023-07-13T12:07:57;100206.47;;;26.06;34.50
66681;BME280;53575;51.366;12.350;2023-07-13T12:10:25;100202.94;;;26.18;34.03
66681;BME280;53575;51.366;12.350;2023-07-13T12:13:05;100210.06;;;26.30;33.72
66681;BME280;53575;51.366;12.350;2023-07-13T12:18:12;100213.75;;;27.12;31.75
66681;BME280;53575;51.366;12.350;2023-07-13T12:20:39;100212.84;;;27.25;31.15
66681;BME280;53575;51.366;12.350;2023-07-13T12:23:31;100201.84;;;26.57;31.27
66681;BME280;53575;51.366;12.350;2023-07-13T12:25:59;100216.59;;;26.63;31.95
66681;BME280;53575;51.366;12.350;2023-07-13T12:28:36;100210.00;;;26.43;32.24
66681;BME280;53575;51.366;12.350;2023-07-13T12:31:05;100214.63;;;26.41;32.05
66681;BME280;53575;51.366;12.350;2023-07-13T12:33:31;100225.44;;;26.52;31.56
66681;BME280;53575;51.366;12.350;2023-07-13T12:36:00;100216.59;;;26.63;31.46
66681;BME280;53575;51.366;12.350;2023-07-13T12:38:27;100219.44;;;26.72;31.78
66681;BME280;53575;51.366;12.350;2023-07-13T12:40:53;100216.94;;;26.58;32.01
66681;BME280;53575;51.366;12.350;2023-07-13T12:43:22;100214.09;;;26.48;32.26
66681;BME280;53575;51.366;12.350;2023-07-13T12:45:59;100219.41;;;26.61;31.90
66681;BME280;53575;51.366;12.350;2023-07-13T12:48:25;100206.34;;;26.20;32.54
66681;BME280;53575;51.366;12.350;2023-07-13T12:50:53;100220.22;;;26.38;32.33
66681;BME280;53575;51.366;12.350;2023-07-13T12:53:22;100213.09;;;26.25;32.16
66681;BME280;53575;51.366;12.350;2023-07-13T12:55:53;100224.47;;;26.77;31.78
66681;BME280;53575;51.366;12.350;2023-07-13T12:58:35;100223.63;;;27.12;31.50
66681;BME280;53575;51.366;12.350;2023-07-13T13:01:02;100230.94;;;26.86;31.60
66681;BME280;53575;51.366;12.350;2023-07-13T13:03:33;100234.06;;;27.04;30.97
66681;BME280;53575;51.366;12.350;2023-07-13T13:06:05;100227.69;;;27.86;29.87
66681;BME280;53575;51.366;12.350;2023-07-13T13:08:34;100225.22;;;28.17;29.66
66681;BME280;53575;51.366;12.350;2023-07-13T13:11:01;100214.59;;;27.93;29.19
66681;BME280;53575;51.366;12.350;2023-07-13T13:13:27;100217.63;;;27.32;30.29
66681;BME280;53575;51.366;12.350;2023-07-13T13:15:53;100215.06;;;28.43;29.70
66681;BME280;53575;51.366;12.350;2023-07-13T13:18:21;100222.81;;;29.43;28.36
66681;BME280;53575;51.366;12.350;2023-07-13T13:20:47;100228.88;;;29.35;27.55
66681;BME280;53575;51.366;12.350;2023-07-13T13:23:19;100223.50;;;29.35;27.40